Time;durP1;ratioP1;P1;durP2;ratioP2;P2;SDS_P1;SDS_P2;PMS_P1;PMS_P2;Temp;Humidity;BMP_temperature;BMP_pressure;BME280_temperature;BME280_humidity;BME280_pressure;Samples;Min_cycle;Max_cycle;Signal;HPM_P1;HPM_P2
2021/06/19 00:02:18;;;;;;;7.70;5.15;;;18.30;99.90;;;;;;6280859;22;20419;-91
2021/06/19 00:04:45;;;;;;;9.90;6.05;;;18.30;99.90;;;;;;6281001;22;20461;-92
2021/06/19 00:07:12;;;;;;;8.53;5.40;;;18.10;99.90;;;;;;6280746;22;20447;-95
2021/06/19 00:09:40;;;;;;;7.13;5.20;;;18.10;99.90;;;;;;6281178;22;20382;-92
2021/06/19 00:12:08;;;;;;;7.97;5.63;;;18.10;99.90;;;;;;6280754;22;20386;-92
2021/06/19 00:14:35;;;;;;;10.40;5.35;;;18.00;99.90;;;;;;6280174;22;20440;-94
2021/06/19 00:17:02;;;;;;;8.35;5.40;;;18.10;99.90;;;;;;6281106;22;20373;-91
2021/06/19 00:19:32;;;;;;;6.60;5.60;;;18.10;99.90;;;;;;6307463;22;20936;-92
2021/06/19 00:21:59;;;;;;;8.83;5.47;;;18.20;99.90;;;;;;6280748;22;20382;-94
2021/06/19 00:24:26;;;;;;;8.45;5.50;;;18.20;99.90;;;;;;6281122;22;20851;-95
2021/06/19 00:26:55;;;;;;;11.70;5.50;;;18.10;99.90;;;;;;6281070;22;20386;-95
2021/06/19 00:29:22;;;;;;;26.23;6.88;;;18.10;99.90;;;;;;6280513;22;20391;-94
2021/06/19 00:31:49;;;;;;;13.77;5.80;;;18.10;99.90;;;;;;6280807;22;20379;-95
2021/06/19 00:34:16;;;;;;;8.35;5.65;;;18.10;99.90;;;;;;6280753;22;20432;-92
2021/06/19 00:36:43;;;;;;;8.70;5.20;;;18.10;99.90;;;;;;6280378;22;20386;-92
2021/06/19 00:39:10;;;;;;;7.15;5.15;;;18.10;99.90;;;;;;6281004;22;20855;-92
2021/06/19 00:41:37;;;;;;;8.77;5.43;;;18.10;99.90;;;;;;6282565;22;20921;-92
2021/06/19 00:44:13;;;;;;;7.32;5.47;;;18.10;99.90;;;;;;6282805;22;20382;-94
2021/06/19 00:46:40;;;;;;;50.10;8.40;;;18.10;99.90;;;;;;6283216;22;20378;-95
2021/06/19 00:49:07;;;;;;;14.35;6.22;;;18.00;99.90;;;;;;6283610;22;20386;-95
2021/06/19 00:51:34;;;;;;;12.30;5.75;;;17.90;99.90;;;;;;6283039;22;20440;-95
2021/06/19 00:54:01;;;;;;;7.97;5.72;;;17.90;99.90;;;;;;6282844;22;20445;-94
2021/06/19 00:56:32;;;;;;;8.40;5.43;;;17.80;99.90;;;;;;6282616;22;20382;-92
2021/06/19 00:58:58;;;;;;;7.30;5.32;;;17.80;99.90;;;;;;6283124;22;20714;-95
2021/06/19 01:01:26;;;;;;;7.78;5.25;;;17.80;99.90;;;;;;6282570;22;20380;-95
2021/06/19 01:03:54;;;;;;;7.43;5.27;;;17.90;99.90;;;;;;6283057;22;20370;-92
2021/06/19 01:06:20;;;;;;;9.50;5.30;;;17.90;99.90;;;;;;6282484;22;20386;-94
2021/06/19 01:08:48;;;;;;;8.32;5.40;;;17.90;99.90;;;;;;6282374;22;20447;-96
2021/06/19 01:11:15;;;;;;;8.23;5.40;;;17.90;99.90;;;;;;6281647;22;20398;-92
2021/06/19 01:13:42;;;;;;;7.88;5.68;;;17.90;99.90;;;;;;6282860;22;20447;-96
2021/06/19 01:16:09;;;;;;;7.50;5.30;;;18.00;99.90;;;;;;6282435;22;20383;-95
2021/06/19 01:18:39;;;;;;;6.60;5.20;;;18.10;99.90;;;;;;6283357;22;20382;-96
2021/06/19 01:21:16;;;;;;;7.63;5.70;;;18.10;99.90;;;;;;6282752;22;20374;-91
2021/06/19 01:23:44;;;;;;;9.88;5.78;;;18.10;99.90;;;;;;6282718;22;20474;-93
2021/06/19 01:26:19;;;;;;;6.38;5.47;;;18.10;99.90;;;;;;6281976;22;20920;-92
2021/06/19 01:28:47;;;;;;;9.27;6.13;;;18.10;99.90;;;;;;6282760;22;20387;-92
2021/06/19 01:31:15;;;;;;;9.27;5.97;;;18.00;99.90;;;;;;6282071;22;20394;-91
2021/06/19 01:33:44;;;;;;;7.95;5.82;;;18.00;99.90;;;;;;6282288;22;20379;-92
2021/06/19 01:36:12;;;;;;;8.52;5.90;;;18.00;99.90;;;;;;6282046;22;20936;-95
2021/06/19 01:38:42;;;;;;;12.30;6.00;;;18.00;99.90;;;;;;6284243;22;20455;-93
2021/06/19 01:41:14;;;;;;;10.32;5.85;;;18.00;99.90;;;;;;6255923;22;22054;-95
2021/06/19 01:43:43;;;;;;;7.32;5.93;;;18.00;99.90;;;;;;6282679;22;20505;-93
2021/06/19 01:46:11;;;;;;;9.90;5.85;;;18.00;99.90;;;;;;6282740;22;20363;-93
2021/06/19 01:48:39;;;;;;;8.97;5.90;;;18.00;99.90;;;;;;6282732;22;20393;-93
2021/06/19 01:51:11;;;;;;;8.40;6.15;;;18.00;99.90;;;;;;6281966;22;20427;-93
2021/06/19 01:53:39;;;;;;;11.15;5.95;;;18.00;99.90;;;;;;6281508;22;20385;-93
2021/06/19 01:56:08;;;;;;;9.50;6.20;;;18.00;99.90;;;;;;6282199;22;20381;-93
2021/06/19 01:58:35;;;;;;;11.10;6.50;;;18.00;99.90;;;;;;6282074;22;20473;-93
2021/06/19 02:01:07;;;;;;;9.52;6.07;;;18.00;99.90;;;;;;6282582;22;20374;-93
2021/06/19 02:03:35;;;;;;;11.10;6.07;;;18.00;99.90;;;;;;6281754;22;20385;-93
2021/06/19 02:06:03;;;;;;;12.07;6.60;;;18.00;99.90;;;;;;6282148;22;20382;-93
2021/06/19 02:08:30;;;;;;;9.40;5.93;;;17.90;99.90;;;;;;6282210;22;20430;-94
2021/06/19 02:10:58;;;;;;;11.20;5.85;;;18.00;99.90;;;;;;6281863;22;20882;-94
2021/06/19 02:13:25;;;;;;;9.27;6.03;;;18.00;99.90;;;;;;6281943;22;20374;-93
2021/06/19 02:15:54;;;;;;;9.82;6.00;;;18.10;99.90;;;;;;6281715;22;20396;-92
2021/06/19 02:18:21;;;;;;;9.57;6.20;;;18.10;99.90;;;;;;6282105;22;20390;-93
2021/06/19 02:20:52;;;;;;;15.05;6.70;;;18.00;99.90;;;;;;6281677;22;20436;-93
2021/06/19 02:23:24;;;;;;;11.03;6.13;;;18.00;99.90;;;;;;6282627;22;20382;-93
2021/06/19 02:25:52;;;;;;;8.45;6.07;;;18.00;99.90;;;;;;6281621;22;20383;-93
2021/06/19 02:28:22;;;;;;;7.75;6.07;;;18.00;99.90;;;;;;6281449;22;20383;-93
2021/06/19 02:30:51;;;;;;;8.07;5.97;;;18.00;99.90;;;;;;6283325;22;20681;-94
2021/06/19 02:33:18;;;;;;;10.88;6.18;;;18.00;99.90;;;;;;6281749;22;20379;-93
2021/06/19 02:35:47;;;;;;;8.75;6.30;;;18.00;99.90;;;;;;6281657;22;20429;-94
2021/06/19 02:38:15;;;;;;;11.88;6.05;;;18.00;99.90;;;;;;6281460;22;20382;-92
2021/06/19 02:40:43;;;;;;;11.30;6.15;;;17.90;99.90;;;;;;6281886;22;20382;-92
2021/06/19 02:43:11;;;;;;;10.82;6.05;;;17.70;99.90;;;;;;6281505;22;20385;-94
2021/06/19 02:45:39;;;;;;;11.18;6.40;;;17.70;99.90;;;;;;6282022;22;20397;-93
2021/06/19 02:48:07;;;;;;;8.40;6.28;;;17.80;99.90;;;;;;6281442;22;20379;-94
2021/06/19 02:50:37;;;;;;;9.68;5.90;;;17.80;99.90;;;;;;6281803;22;20394;-93
2021/06/19 02:53:05;;;;;;;10.70;6.75;;;17.80;99.90;;;;;;6281425;22;20388;-94
2021/06/19 02:55:35;;;;;;;11.95;6.15;;;17.70;99.90;;;;;;6281878;22;20366;-93
2021/06/19 02:58:04;;;;;;;8.68;6.00;;;17.70;99.90;;;;;;6281806;22;20367;-93
2021/06/19 03:00:32;;;;;;;10.27;6.18;;;17.70;99.90;;;;;;6281659;22;20439;-93
2021/06/19 03:03:01;;;;;;;7.97;6.15;;;17.70;99.90;;;;;;6280945;22;20386;-94
2021/06/19 03:05:29;;;;;;;7.95;5.68;;;17.80;99.90;;;;;;6281946;22;20367;-94
2021/06/19 03:07:56;;;;;;;10.32;6.15;;;17.90;99.90;;;;;;6281713;22;20854;-92
2021/06/19 03:10:26;;;;;;;11.83;6.10;;;17.80;99.90;;;;;;6281240;22;20391;-94
2021/06/19 03:12:53;;;;;;;10.13;6.40;;;17.80;99.90;;;;;;6280840;22;20397;-92
2021/06/19 03:15:21;;;;;;;11.63;6.53;;;17.80;99.90;;;;;;6280973;22;20466;-93
2021/06/19 03:17:48;;;;;;;13.68;6.35;;;17.80;99.90;;;;;;6281813;22;20447;-92
2021/06/19 03:20:17;;;;;;;12.23;6.00;;;17.90;99.90;;;;;;6281715;22;20398;-93
2021/06/19 03:22:47;;;;;;;9.10;6.40;;;17.90;99.90;;;;;;6284320;22;20456;-93
2021/06/19 03:25:25;;;;;;;8.75;6.00;;;17.90;99.90;;;;;;6284775;22;20382;-92
2021/06/19 03:27:55;;;;;;;8.77;6.00;;;17.90;99.90;;;;;;6284693;22;20390;-92
2021/06/19 03:30:22;;;;;;;10.93;6.22;;;17.90;99.90;;;;;;6284345;22;20383;-93
2021/06/19 03:32:50;;;;;;;9.57;6.03;;;17.90;99.90;;;;;;6282245;22;20366;-93
2021/06/19 03:35:18;;;;;;;9.82;5.85;;;17.80;99.90;;;;;;6280901;22;20387;-93
2021/06/19 03:37:46;;;;;;;10.35;5.88;;;17.90;99.90;;;;;;6281197;22;20753;-93
2021/06/19 03:40:15;;;;;;;9.68;5.70;;;18.00;99.90;;;;;;6280880;22;20395;-93
2021/06/19 03:42:45;;;;;;;7.78;5.82;;;18.10;99.90;;;;;;6280865;22;20387;-94
2021/06/19 03:45:13;;;;;;;8.35;5.90;;;18.20;99.90;;;;;;6281103;22;20390;-95
2021/06/19 03:47:41;;;;;;;10.00;5.90;;;18.30;99.90;;;;;;6281079;22;20851;-93
2021/06/19 03:50:14;;;;;;;8.23;6.00;;;18.30;99.90;;;;;;6280869;22;20393;-93
2021/06/19 03:52:45;;;;;;;10.37;6.13;;;18.40;99.90;;;;;;6281501;22;20382;-94
2021/06/19 03:55:12;;;;;;;10.93;5.90;;;18.40;99.90;;;;;;6281544;22;20369;-93
2021/06/19 03:57:40;;;;;;;10.90;6.47;;;18.40;99.90;;;;;;6280406;22;20755;-93
2021/06/19 04:00:09;;;;;;;13.98;6.50;;;18.30;99.90;;;;;;6280860;22;20386;-94
2021/06/19 04:02:36;;;;;;;9.30;6.10;;;18.40;99.90;;;;;;6280849;22;20379;-94
2021/06/19 04:05:05;;;;;;;9.80;5.88;;;18.50;99.90;;;;;;6280695;22;20390;-94
2021/06/19 04:07:32;;;;;;;9.27;6.05;;;18.70;99.90;;;;;;6280691;22;20383;-94
2021/06/19 04:10:04;;;;;;;9.98;6.10;;;18.70;99.90;;;;;;6281298;22;20390;-96
2021/06/19 04:12:31;;;;;;;10.07;5.93;;;18.80;99.90;;;;;;6280653;22;20724;-94
2021/06/19 04:14:58;;;;;;;13.98;6.18;;;18.90;99.90;;;;;;6280438;22;20429;-94
2021/06/19 04:17:26;;;;;;;10.43;6.15;;;18.90;99.90;;;;;;6282667;22;20715;-94
2021/06/19 04:19:53;;;;;;;9.73;5.90;;;19.00;99.90;;;;;;6280964;22;20471;-94
2021/06/19 04:22:20;;;;;;;9.37;6.17;;;19.00;99.90;;;;;;6281088;22;20389;-95
2021/06/19 04:24:47;;;;;;;9.20;6.40;;;19.00;99.90;;;;;;6280935;22;20378;-94
2021/06/19 04:27:17;;;;;;;7.95;6.03;;;18.90;99.90;;;;;;6280760;22;20737;-95
2021/06/19 04:29:45;;;;;;;7.07;5.43;;;18.90;99.90;;;;;;6281009;22;20393;-95
2021/06/19 04:32:13;;;;;;;8.35;5.60;;;19.00;99.90;;;;;;6280729;22;20405;-96
2021/06/19 04:34:41;;;;;;;10.48;5.93;;;19.10;99.90;;;;;;6280491;22;20385;-96
2021/06/19 04:37:11;;;;;;;10.07;6.17;;;19.20;99.90;;;;;;6260109;22;20384;-95
2021/06/19 04:39:49;;;;;;;12.00;6.70;;;19.30;99.90;;;;;;6249947;22;20390;-96
2021/06/19 04:42:18;;;;;;;8.25;6.18;;;19.30;99.90;;;;;;6250439;22;20760;-96
2021/06/19 04:45:02;;;;;;;7.70;5.50;;;19.30;99.90;;;;;;6249974;22;20392;-94
2021/06/19 04:47:31;;;;;;;10.10;5.47;;;19.10;99.90;;;;;;6251207;22;20435;-94
2021/06/19 04:49:59;;;;;;;9.27;5.68;;;19.00;99.90;;;;;;6250702;22;20697;-94
2021/06/19 04:52:27;;;;;;;9.70;5.43;;;19.20;99.90;;;;;;6249844;22;20396;-93
2021/06/19 04:54:57;;;;;;;6.63;5.10;;;19.60;99.90;;;;;;6253765;22;20388;-95
2021/06/19 04:57:25;;;;;;;8.35;5.35;;;19.80;99.90;;;;;;6251379;22;20383;-93
2021/06/19 04:59:52;;;;;;;8.07;5.45;;;19.80;99.90;;;;;;6250671;22;20391;-92
2021/06/19 05:02:19;;;;;;;7.80;5.78;;;19.70;99.90;;;;;;6250123;22;20865;-93
2021/06/19 05:04:47;;;;;;;6.90;5.68;;;19.70;99.90;;;;;;6250012;22;20465;-93
2021/06/19 05:07:13;;;;;;;8.48;5.70;;;19.60;99.90;;;;;;6250625;22;20853;-93
2021/06/19 05:09:42;;;;;;;8.85;5.72;;;19.70;99.90;;;;;;6249930;22;20418;-93
2021/06/19 05:12:09;;;;;;;10.20;5.78;;;19.70;99.90;;;;;;6249455;22;20426;-93
2021/06/19 05:14:36;;;;;;;11.65;5.82;;;19.80;99.90;;;;;;6249776;22;20380;-93
2021/06/19 05:17:03;;;;;;;9.85;5.93;;;19.80;99.90;;;;;;6249725;22;20402;-93
2021/06/19 05:19:31;;;;;;;10.43;5.80;;;19.70;99.90;;;;;;6249758;22;20752;-93
2021/06/19 05:21:58;;;;;;;15.90;5.63;;;19.60;99.90;;;;;;6250035;22;20391;-94
2021/06/19 05:24:25;;;;;;;10.80;5.60;;;19.40;99.90;;;;;;6250395;22;20684;-94
2021/06/19 05:26:52;;;;;;;9.55;5.60;;;19.60;99.90;;;;;;6251213;22;20372;-92
2021/06/19 05:29:20;;;;;;;6.60;5.13;;;19.90;99.90;;;;;;6251613;22;20380;-91
2021/06/19 05:31:47;;;;;;;7.47;5.43;;;20.10;99.90;;;;;;6251516;22;20888;-93
2021/06/19 05:34:14;;;;;;;9.73;5.78;;;20.10;99.90;;;;;;6251947;22;20380;-95
2021/06/19 05:36:41;;;;;;;6.38;4.93;;;20.40;99.90;;;;;;6266969;22;20444;-92
2021/06/19 05:39:08;;;;;;;8.82;5.28;;;20.60;99.90;;;;;;6282795;22;20382;-94
2021/06/19 05:41:36;;;;;;;6.72;5.20;;;20.80;99.90;;;;;;6282409;22;20879;-93
2021/06/19 05:44:07;;;;;;;11.93;5.57;;;20.90;99.90;;;;;;6282261;22;20386;-94
2021/06/19 05:46:36;;;;;;;8.95;5.20;;;20.90;99.90;;;;;;6282433;22;20475;-94
2021/06/19 05:49:05;;;;;;;8.00;5.05;;;20.90;99.90;;;;;;6283751;22;20385;-92
2021/06/19 05:51:32;;;;;;;9.63;5.30;;;21.10;99.90;;;;;;6282353;22;20457;-93
2021/06/19 05:54:01;;;;;;;6.95;5.10;;;21.30;99.90;;;;;;6282557;22;20383;-94
2021/06/19 05:56:27;;;;;;;7.82;5.10;;;21.60;99.90;;;;;;6281861;22;20544;-94
2021/06/19 05:58:54;;;;;;;7.95;5.05;;;21.90;99.90;;;;;;6282025;22;20391;-93
2021/06/19 06:01:22;;;;;;;11.10;5.30;;;22.30;99.80;;;;;;6281761;22;20386;-91
2021/06/19 06:03:49;;;;;;;59.05;32.35;;;22.70;99.40;;;;;;6281906;22;20389;-92
2021/06/19 06:06:17;;;;;;;18.92;10.93;;;23.10;99.00;;;;;;6281948;22;20432;-90
2021/06/19 06:08:44;;;;;;;14.07;6.53;;;23.20;98.90;;;;;;6282054;22;20453;-90
2021/06/19 06:11:11;;;;;;;11.95;6.25;;;23.20;98.90;;;;;;6281288;22;20383;-91
2021/06/19 06:13:38;;;;;;;8.65;6.20;;;23.50;99.10;;;;;;6281821;22;20928;-94
2021/06/19 06:16:06;;;;;;;11.00;6.50;;;23.50;98.70;;;;;;6282815;22;20371;-93
2021/06/19 06:18:33;;;;;;;12.32;6.40;;;23.60;98.90;;;;;;6282002;22;20378;-93
2021/06/19 06:21:02;;;;;;;18.40;8.32;;;23.50;98.70;;;;;;6282647;22;20382;-94
2021/06/19 06:23:29;;;;;;;13.17;7.70;;;23.70;98.50;;;;;;6282194;22;20382;-92
2021/06/19 06:25:57;;;;;;;16.15;8.15;;;24.00;98.70;;;;;;6281781;22;20412;-91
2021/06/19 06:28:24;;;;;;;18.30;7.75;;;24.20;98.40;;;;;;6281384;22;20463;-93
2021/06/19 06:30:57;;;;;;;15.80;7.38;;;24.50;97.40;;;;;;6281494;22;20386;-92
2021/06/19 06:33:26;;;;;;;12.60;6.72;;;24.70;96.90;;;;;;6282352;22;20459;-92
2021/06/19 06:35:55;;;;;;;16.45;7.13;;;25.00;96.60;;;;;;6281416;22;20378;-93
2021/06/19 06:38:22;;;;;;;17.73;7.75;;;25.50;95.70;;;;;;6281433;22;20385;-92
2021/06/19 06:40:52;;;;;;;14.88;7.68;;;25.50;96.50;;;;;;6282257;22;20362;-92
2021/06/19 06:43:19;;;;;;;16.10;7.57;;;25.50;96.10;;;;;;6282027;22;20363;-94
2021/06/19 06:45:47;;;;;;;14.80;7.27;;;25.20;95.40;;;;;;6282431;22;20389;-95
2021/06/19 06:48:14;;;;;;;12.98;7.22;;;25.20;96.70;;;;;;6283849;22;20413;-96
2021/06/19 06:50:42;;;;;;;14.57;7.55;;;25.80;95.80;;;;;;6285170;22;20382;-93
2021/06/19 06:53:09;;;;;;;13.20;6.63;;;25.90;96.50;;;;;;6283344;22;20742;-92
2021/06/19 06:55:37;;;;;;;12.93;7.00;;;25.70;94.90;;;;;;6281830;22;20429;-93
2021/06/19 06:58:04;;;;;;;12.52;7.45;;;25.10;96.30;;;;;;6281723;22;20377;-94
2021/06/19 07:00:31;;;;;;;15.82;7.97;;;24.80;97.20;;;;;;6281214;22;20382;-94
2021/06/19 07:02:58;;;;;;;14.40;8.13;;;24.50;97.70;;;;;;6282252;22;20654;-93
2021/06/19 07:05:25;;;;;;;16.40;8.45;;;24.30;97.60;;;;;;6282946;22;20394;-96
2021/06/19 07:07:52;;;;;;;14.23;7.87;;;24.10;98.10;;;;;;6285493;22;20473;-94
2021/06/19 07:10:22;;;;;;;11.88;7.50;;;23.70;98.80;;;;;;6287743;22;20386;-96
2021/06/19 07:12:49;;;;;;;16.63;7.73;;;23.60;99.50;;;;;;6282086;22;20394;-93
2021/06/19 07:15:18;;;;;;;14.68;7.68;;;23.60;99.30;;;;;;6281723;22;20387;-96
2021/06/19 07:17:49;;;;;;;12.77;7.85;;;23.60;99.40;;;;;;6282176;22;20367;-93
2021/06/19 07:20:18;;;;;;;11.00;7.72;;;23.70;99.20;;;;;;6281315;22;20444;-88
2021/06/19 07:22:45;;;;;;;13.40;7.70;;;24.00;99.00;;;;;;6308248;22;20395;-93
2021/06/19 07:25:13;;;;;;;12.27;7.28;;;24.20;99.00;;;;;;6283353;22;20402;-95
2021/06/19 07:27:41;;;;;;;11.60;6.93;;;24.50;99.20;;;;;;6281846;22;20747;-93
2021/06/19 07:30:10;;;;;;;13.30;6.95;;;24.50;98.80;;;;;;6281269;22;20444;-94
2021/06/19 07:32:37;;;;;;;10.98;7.03;;;24.60;99.10;;;;;;6281096;22;20394;-94
2021/06/19 07:35:08;;;;;;;11.43;6.50;;;24.70;98.90;;;;;;6281435;22;20378;-94
2021/06/19 07:37:35;;;;;;;9.65;6.53;;;24.90;97.60;;;;;;6280868;22;20398;-95
2021/06/19 07:40:02;;;;;;;13.70;6.47;;;25.10;98.30;;;;;;6281464;22;20754;-92
2021/06/19 07:42:31;;;;;;;12.40;6.40;;;24.90;97.60;;;;;;6280979;22;20394;-93
2021/06/19 07:44:59;;;;;;;11.98;6.30;;;24.80;98.10;;;;;;6281159;22;20379;-96
2021/06/19 07:47:26;;;;;;;12.38;6.82;;;24.80;97.40;;;;;;6280699;22;20469;-92
2021/06/19 07:49:54;;;;;;;16.52;7.07;;;24.90;98.00;;;;;;6280949;22;20444;-94
2021/06/19 07:52:21;;;;;;;14.13;7.00;;;24.80;98.60;;;;;;6281961;22;20386;-95
2021/06/19 07:54:48;;;;;;;11.27;6.60;;;25.10;98.80;;;;;;6281695;22;20385;-95
2021/06/19 07:57:15;;;;;;;10.52;7.20;;;25.10;98.30;;;;;;6281357;22;20390;-93
2021/06/19 07:59:43;;;;;;;10.40;7.00;;;25.00;98.10;;;;;;6281593;22;20753;-92
2021/06/19 08:02:09;;;;;;;12.10;6.93;;;24.70;98.50;;;;;;6280833;22;20391;-93
2021/06/19 08:04:37;;;;;;;11.18;6.88;;;24.30;99.10;;;;;;6280695;22;20402;-93
2021/06/19 08:07:05;;;;;;;18.65;7.45;;;24.30;99.90;;;;;;6280761;22;20984;-93
2021/06/19 08:09:32;;;;;;;11.68;7.30;;;24.50;99.00;;;;;;6281323;22;20742;-93
2021/06/19 08:12:00;;;;;;;17.65;7.15;;;24.70;99.40;;;;;;6280284;22;20422;-93
2021/06/19 08:14:27;;;;;;;13.55;7.10;;;24.90;99.10;;;;;;6281386;22;20867;-94
2021/06/19 08:16:57;;;;;;;12.55;6.93;;;25.30;99.00;;;;;;6281597;22;20370;-94
2021/06/19 08:19:24;;;;;;;11.63;6.63;;;25.20;99.10;;;;;;6280845;22;20461;-93
2021/06/19 08:21:51;;;;;;;11.53;7.03;;;25.10;99.40;;;;;;6281301;22;20382;-93
2021/06/19 08:24:19;;;;;;;14.02;7.00;;;25.10;99.20;;;;;;6280938;22;20862;-92
2021/06/19 08:26:46;;;;;;;13.18;6.97;;;25.10;98.90;;;;;;6280314;22;20762;-92
2021/06/19 08:29:13;;;;;;;15.13;7.78;;;25.30;99.90;;;;;;6280377;22;20382;-93
2021/06/19 08:31:41;;;;;;;14.07;7.55;;;25.60;98.70;;;;;;6307117;22;20429;-94
2021/06/19 08:34:08;;;;;;;13.55;6.80;;;25.90;98.20;;;;;;6280909;22;20444;-93
2021/06/19 08:36:36;;;;;;;12.13;6.70;;;25.90;97.90;;;;;;6279745;22;20386;-94
2021/06/19 08:39:04;;;;;;;11.30;6.63;;;25.60;97.70;;;;;;6281611;22;20444;-93
2021/06/19 08:41:32;;;;;;;9.10;6.78;;;25.50;99.40;;;;;;6279706;22;20383;-94
2021/06/19 08:44:02;;;;;;;10.97;6.57;;;25.60;99.40;;;;;;6280002;22;20382;-93
2021/06/19 08:46:30;;;;;;;11.23;6.73;;;25.70;99.30;;;;;;6280978;22;20386;-94
2021/06/19 08:48:57;;;;;;;11.75;7.07;;;26.00;98.90;;;;;;6280456;22;20383;-93
2021/06/19 08:51:25;;;;;;;9.88;6.57;;;25.80;98.00;;;;;;6279951;22;20385;-93
2021/06/19 08:53:53;;;;;;;9.75;6.80;;;25.60;97.90;;;;;;6280696;22;20428;-93
2021/06/19 08:56:22;;;;;;;11.35;6.63;;;25.60;97.50;;;;;;6280238;22;20375;-92
2021/06/19 08:58:50;;;;;;;10.75;5.88;;;25.50;98.50;;;;;;6280108;22;20383;-93
2021/06/19 09:01:18;;;;;;;12.77;6.00;;;25.60;98.80;;;;;;6281634;22;20386;-92
2021/06/19 09:03:45;;;;;;;11.30;6.65;;;25.60;99.10;;;;;;6283645;22;20447;-94
2021/06/19 09:06:42;;;;;;;12.45;6.40;;;25.40;98.70;;;;;;6282444;22;20423;-94
2021/06/19 09:09:16;;;;;;;12.07;5.85;;;25.50;98.30;;;;;;6280678;22;20662;-92
2021/06/19 09:11:48;;;;;;;10.20;6.47;;;25.80;98.10;;;;;;6281877;22;20455;-92
2021/06/19 09:14:25;;;;;;;9.93;5.82;;;25.80;97.50;;;;;;6282651;22;20385;-92
2021/06/19 09:17:07;;;;;;;8.67;6.10;;;26.10;97.00;;;;;;6282232;22;20858;-92
2021/06/19 09:19:39;;;;;;;7.45;5.97;;;26.10;96.90;;;;;;6283286;22;20394;-92
2021/06/19 09:22:17;;;;;;;10.82;5.90;;;26.00;96.70;;;;;;6281765;22;20447;-93
2021/06/19 09:24:56;;;;;;;8.43;5.85;;;26.00;97.10;;;;;;6283087;22;20383;-93
2021/06/19 09:27:35;;;;;;;10.10;5.70;;;26.00;97.30;;;;;;6282396;22;20377;-92
2021/06/19 09:30:17;;;;;;;11.02;6.15;;;26.10;97.50;;;;;;6281981;22;20382;-92
2021/06/19 09:32:58;;;;;;;10.45;6.05;;;26.30;97.10;;;;;;6282671;22;20429;-92
2021/06/19 09:35:31;;;;;;;12.07;6.05;;;26.40;96.50;;;;;;6282398;22;20746;-92
2021/06/19 09:38:12;;;;;;;9.60;6.00;;;26.30;96.10;;;;;;6282729;22;20432;-92
2021/06/19 09:40:44;;;;;;;14.52;6.13;;;26.30;96.70;;;;;;6282083;22;20940;-92
2021/06/19 09:43:24;;;;;;;10.23;5.95;;;26.50;97.80;;;;;;6281990;22;20925;-94
2021/06/19 09:46:07;;;;;;;9.20;5.72;;;26.70;97.40;;;;;;6282677;22;20669;-94
2021/06/19 09:48:36;;;;;;;8.77;6.30;;;26.80;95.90;;;;;;6281711;22;20383;-93
2021/06/19 09:51:24;;;;;;;12.75;5.85;;;26.80;96.30;;;;;;6282427;22;20378;-93
2021/06/19 09:54:06;;;;;;;9.20;5.90;;;26.60;96.50;;;;;;6282838;22;20399;-94
2021/06/19 09:56:51;;;;;;;11.60;6.03;;;26.50;95.90;;;;;;6281408;22;20378;-93
2021/06/19 09:59:29;;;;;;;9.38;5.75;;;26.60;96.40;;;;;;6282078;22;20409;-94
2021/06/19 10:01:58;;;;;;;10.43;6.10;;;26.70;96.40;;;;;;6281929;22;20386;-95
2021/06/19 10:04:31;;;;;;;11.80;5.75;;;27.00;95.60;;;;;;6281867;22;20879;-93
2021/06/19 10:06:59;;;;;;;8.25;6.18;;;27.40;97.10;;;;;;6281827;22;20385;-93
2021/06/19 10:09:26;;;;;;;11.70;5.95;;;27.60;95.20;;;;;;6282087;22;20750;-94
2021/06/19 10:11:54;;;;;;;10.05;6.00;;;27.60;96.00;;;;;;6281048;22;20385;-93
2021/06/19 10:14:24;;;;;;;10.63;5.95;;;27.40;95.10;;;;;;6283414;22;20387;-93
2021/06/19 10:16:53;;;;;;;13.15;5.95;;;27.20;93.90;;;;;;6282457;22;20379;-94
2021/06/19 10:19:23;;;;;;;10.98;5.88;;;27.20;95.00;;;;;;6281827;22;20770;-93
2021/06/19 10:21:54;;;;;;;10.88;5.72;;;27.10;94.30;;;;;;6281444;22;20387;-91
2021/06/19 10:24:23;;;;;;;8.53;5.77;;;27.10;94.50;;;;;;6281153;22;20394;-92
2021/06/19 10:26:52;;;;;;;8.02;5.70;;;27.30;94.40;;;;;;6280999;22;20715;-90
2021/06/19 10:29:25;;;;;;;10.55;5.78;;;27.50;93.70;;;;;;6282001;22;20386;-92
2021/06/19 10:31:54;;;;;;;9.27;5.93;;;27.70;93.20;;;;;;6281395;22;20443;-92
2021/06/19 10:34:30;;;;;;;11.57;5.90;;;27.60;93.70;;;;;;6282071;22;20755;-93
2021/06/19 10:37:00;;;;;;;8.23;5.27;;;27.50;93.30;;;;;;6263885;22;20389;-93
2021/06/19 10:39:31;;;;;;;10.27;5.57;;;27.60;94.10;;;;;;6250670;22;20388;-93
2021/06/19 10:41:59;;;;;;;10.65;5.20;;;27.60;93.60;;;;;;6250280;22;20395;-94
2021/06/19 10:44:49;;;;;;;9.70;5.63;;;27.80;92.90;;;;;;6251877;22;20397;-95
2021/06/19 10:47:22;;;;;;;9.37;5.57;;;28.10;92.60;;;;;;6254341;22;20392;-93
2021/06/19 10:49:55;;;;;;;8.75;5.13;;;28.50;93.60;;;;;;6256334;22;20446;-94
2021/06/19 10:52:35;;;;;;;10.13;5.25;;;28.30;90.70;;;;;;6230130;22;20392;-93
2021/06/19 10:55:08;;;;;;;8.30;5.05;;;28.50;91.30;;;;;;6256690;22;20386;-94
2021/06/19 10:57:59;;;;;;;9.38;5.30;;;28.80;93.30;;;;;;6254880;22;20394;-92
2021/06/19 11:00:36;;;;;;;6.90;5.20;;;28.90;89.20;;;;;;6253718;22;20388;-93
2021/06/19 11:03:07;;;;;;;7.60;5.37;;;29.00;92.60;;;;;;6255476;22;20950;-96
2021/06/19 11:05:43;;;;;;;10.50;5.30;;;29.20;91.30;;;;;;6258062;22;20475;-96
2021/06/19 11:08:12;;;;;;;11.25;5.15;;;29.30;91.50;;;;;;6262628;22;20433;-94
2021/06/19 11:10:45;;;;;;;11.43;5.50;;;29.20;89.30;;;;;;6259510;22;20395;-95
2021/06/19 11:13:28;;;;;;;11.07;5.50;;;28.90;90.70;;;;;;6254972;22;20427;-94
2021/06/19 11:15:57;;;;;;;8.38;5.60;;;28.20;90.10;;;;;;6251634;22;20411;-93
2021/06/19 11:18:49;;;;;;;8.80;5.47;;;27.70;91.60;;;;;;6251075;22;20748;-93
2021/06/19 11:21:19;;;;;;;11.60;5.93;;;27.50;92.10;;;;;;6250625;22;20388;-93
2021/06/19 11:24:01;;;;;;;8.85;5.90;;;27.50;92.90;;;;;;6250457;22;20384;-94
2021/06/19 11:26:53;;;;;;;14.02;6.63;;;27.40;92.40;;;;;;6251817;22;20391;-94
2021/06/19 11:29:35;;;;;;;9.50;6.37;;;27.10;93.10;;;;;;6252215;22;20387;-93
2021/06/19 11:32:25;;;;;;;10.75;6.30;;;27.00;94.10;;;;;;6251566;22;20387;-96
2021/06/19 11:35:13;;;;;;;7.47;5.85;;;27.00;94.20;;;;;;6252084;22;20376;-95
2021/06/19 11:37:53;;;;;;;8.90;6.25;;;27.00;94.10;;;;;;6278149;22;20422;-92
2021/06/19 11:40:27;;;;;;;9.93;6.25;;;27.00;96.80;;;;;;6284794;22;20436;-93
2021/06/19 11:42:54;;;;;;;8.45;6.03;;;27.40;94.20;;;;;;6282655;22;20383;-96
2021/06/19 11:45:22;;;;;;;9.43;6.10;;;28.20;93.30;;;;;;6285215;22;20382;-96
2021/06/19 11:48:10;;;;;;;11.68;6.00;;;28.90;92.40;;;;;;6288112;22;20382;-95
2021/06/19 11:50:40;;;;;;;12.43;6.40;;;29.50;90.70;;;;;;6284872;22;20390;-93
2021/06/19 11:53:36;;;;;;;11.52;6.22;;;29.90;90.20;;;;;;6285000;22;20401;-95
2021/06/19 11:56:27;;;;;;;14.48;6.65;;;29.50;89.40;;;;;;6285671;22;20485;-95
2021/06/19 11:58:55;;;;;;;8.80;6.18;;;28.70;90.80;;;;;;6292491;22;20421;-93
2021/06/19 12:01:38;;;;;;;10.38;6.47;;;28.10;91.00;;;;;;6314539;22;20366;-93
2021/06/19 12:04:15;;;;;;;10.13;6.13;;;28.20;93.10;;;;;;6314302;22;20354;-94
2021/06/19 12:06:45;;;;;;;10.35;6.28;;;28.40;91.30;;;;;;6310970;22;20378;-94
2021/06/19 12:09:17;;;;;;;12.90;6.45;;;28.70;91.60;;;;;;6313390;22;20410;-94
2021/06/19 12:11:45;;;;;;;10.40;6.20;;;28.60;91.70;;;;;;6299171;22;20388;-93
2021/06/19 12:14:32;;;;;;;14.02;6.43;;;28.20;91.80;;;;;;6284137;22;20411;-95
2021/06/19 12:17:05;;;;;;;10.45;6.38;;;27.90;92.20;;;;;;6290771;22;20426;-93
2021/06/19 12:19:37;;;;;;;9.93;6.15;;;27.60;92.00;;;;;;6317896;22;20396;-93
2021/06/19 12:24:37;;;;;;;12.53;6.57;;;27.20;93.40;;;;;;6315117;22;20382;-94
2021/06/19 12:27:14;;;;;;;10.35;6.93;;;27.20;94.40;;;;;;6290449;22;20382;-94
2021/06/19 12:30:06;;;;;;;9.80;6.30;;;27.00;92.40;;;;;;6287830;22;20445;-94
2021/06/19 12:32:41;;;;;;;9.10;6.50;;;27.00;94.00;;;;;;6286327;22;20394;-94
2021/06/19 12:35:11;;;;;;;7.75;6.35;;;27.10;94.30;;;;;;6291169;22;20382;-94
2021/06/19 12:37:58;;;;;;;7.95;6.63;;;27.00;94.90;;;;;;6297465;22;20390;-94
2021/06/19 12:40:31;;;;;;;13.35;6.78;;;27.00;93.80;;;;;;6295145;22;20873;-94
2021/06/19 12:43:05;;;;;;;9.50;6.75;;;27.00;94.30;;;;;;6295802;22;20485;-95
2021/06/19 12:45:35;;;;;;;9.75;6.40;;;27.00;95.70;;;;;;6295425;22;20467;-96
2021/06/19 12:48:07;;;;;;;10.25;6.30;;;27.20;96.50;;;;;;6287855;22;20382;-95
2021/06/19 12:50:39;;;;;;;11.90;6.88;;;27.10;96.30;;;;;;6317103;22;20772;-95
2021/06/19 12:53:14;;;;;;;16.20;6.38;;;27.20;95.60;;;;;;6298522;22;20393;-93
2021/06/19 12:56:03;;;;;;;10.10;6.50;;;27.10;94.10;;;;;;6300199;22;20419;-92
2021/06/19 12:58:42;;;;;;;10.63;6.65;;;27.20;96.90;;;;;;6294107;22;20382;-92
2021/06/19 13:01:25;;;;;;;8.70;6.13;;;27.10;96.30;;;;;;6289700;22;20461;-92